createdAt,value
2022-08-31T20:15:38.254Z,8.38
2022-08-31T20:16:43.470Z,8.57
2022-08-31T20:17:48.739Z,8.32
2022-08-31T20:18:57.928Z,13.25
2022-08-31T20:20:03.213Z,7.82
2022-08-31T20:21:17.293Z,7.45
2022-08-31T20:22:23.706Z,7.30
2022-08-31T20:23:30.406Z,14.27
2022-08-31T20:24:35.404Z,11.45
2022-08-31T20:25:38.913Z,7.70
2022-08-31T20:26:51.977Z,8.57
2022-08-31T20:27:54.351Z,8.18
2022-08-31T20:29:04.319Z,8.63
2022-08-31T20:31:13.715Z,9.00
2022-08-31T20:32:18.597Z,8.43
2022-08-31T20:33:22.239Z,8.68
2022-08-31T20:34:29.269Z,9.63
2022-08-31T20:35:32.624Z,11.13
2022-08-31T20:36:39.688Z,14.57
2022-08-31T20:37:41.816Z,11.48
2022-08-31T20:38:46.542Z,37.20
2022-08-31T20:39:52.089Z,9.68
2022-08-31T20:40:55.294Z,9.05
2022-08-31T20:42:03.346Z,9.13
2022-08-31T20:43:12.823Z,9.23
2022-08-31T20:44:22.982Z,9.98
2022-08-31T20:45:25.191Z,9.90
2022-08-31T20:46:43.228Z,10.80
2022-08-31T20:48:00.359Z,10.35
2022-08-31T20:49:23.408Z,9.85
2022-08-31T20:50:29.910Z,11.02
2022-08-31T20:51:40.416Z,10.15
2022-08-31T20:52:45.748Z,11.18
2022-08-31T20:53:51.176Z,12.63
2022-08-31T20:55:01.325Z,13.73
2022-08-31T20:56:06.037Z,12.52
2022-08-31T20:57:11.877Z,12.73
2022-08-31T20:58:14.537Z,13.20
2022-08-31T20:59:24.577Z,13.88
2022-08-31T21:00:26.701Z,14.73
2022-08-31T21:01:32.149Z,14.82
2022-08-31T21:02:34.807Z,15.15
2022-08-31T21:03:39.909Z,15.15
2022-08-31T21:04:45.373Z,14.73
2022-08-31T21:05:51.012Z,16.38
2022-08-31T21:06:53.329Z,15.43
2022-08-31T21:07:58.575Z,16.40
2022-08-31T21:09:02.050Z,209.48
2022-08-31T21:10:08.005Z,16.08
2022-08-31T21:11:12.311Z,131.30
2022-08-31T21:12:18.511Z,16.63
2022-08-31T21:13:20.819Z,85.03
2022-08-31T21:14:30.831Z,77.68
2022-08-31T21:15:32.964Z,89.70
2022-08-31T21:16:37.976Z,104.43
2022-08-31T21:17:40.781Z,84.82
2022-08-31T21:18:45.853Z,54.67
2022-08-31T21:19:49.206Z,41.85
2022-08-31T21:20:57.970Z,68.05
2022-08-31T21:22:05.439Z,21.13
2022-08-31T21:23:13.390Z,15.32
2022-08-31T21:24:18.053Z,45.95
2022-08-31T21:25:23.088Z,29.38
2022-08-31T21:26:27.234Z,69.55
2022-08-31T21:27:33.083Z,106.18
2022-08-31T21:28:38.372Z,163.25
2022-08-31T21:29:47.161Z,173.63
2022-08-31T21:30:50.634Z,185.90
2022-08-31T21:32:02.608Z,181.38
2022-08-31T21:33:05.206Z,128.77
2022-08-31T21:34:10.337Z,35.40
2022-08-31T21:35:15.079Z,19.63
2022-08-31T21:36:23.355Z,15.52
2022-08-31T21:37:25.458Z,17.20
2022-08-31T21:38:30.039Z,16.42
2022-08-31T21:39:32.531Z,16.67
2022-08-31T21:40:37.221Z,18.50
2022-08-31T21:41:39.482Z,30.83
2022-08-31T21:42:44.025Z,36.67
2022-08-31T21:43:46.341Z,43.90
2022-08-31T21:44:53.490Z,28.67
2022-08-31T21:46:02.502Z,36.97
2022-08-31T21:47:08.152Z,42.95
2022-08-31T21:48:10.137Z,44.92
2022-08-31T21:49:14.721Z,39.30
2022-08-31T21:50:17.063Z,99.45
2022-08-31T21:51:24.234Z,167.98
2022-08-31T21:52:26.182Z,129.75
2022-08-31T21:53:30.640Z,164.65
2022-08-31T21:54:32.695Z,182.38
2022-08-31T21:55:39.897Z,184.10
2022-08-31T21:56:43.890Z,214.73
2022-08-31T21:57:48.466Z,138.45
2022-08-31T21:58:52.063Z,40.55
2022-08-31T21:59:59.695Z,459.08
2022-08-31T22:01:02.511Z,892.30
2022-08-31T22:02:11.251Z,888.30
2022-08-31T22:03:14.351Z,896.10
2022-08-31T22:04:21.225Z,887.92
2022-08-31T22:05:23.194Z,814.33
2022-08-31T22:06:31.127Z,861.22
2022-08-31T22:07:33.240Z,890.22
2022-08-31T22:08:38.366Z,700.22
2022-08-31T22:09:40.941Z,50.53
2022-08-31T22:10:46.629Z,43.03
2022-08-31T22:11:52.750Z,31.58
2022-08-31T22:12:57.322Z,27.67
2022-08-31T22:13:59.727Z,28.60
2022-08-31T22:15:10.986Z,27.77
2022-08-31T22:16:19.343Z,77.60
2022-08-31T22:17:42.270Z,146.23
2022-08-31T22:19:07.200Z,91.18
2022-08-31T22:20:17.679Z,106.13
2022-08-31T22:22:36.927Z,108.28
2022-08-31T22:23:39.020Z,56.40
2022-08-31T22:24:44.473Z,67.38
2022-08-31T22:25:46.748Z,70.53
2022-08-31T22:26:52.979Z,94.47
2022-08-31T22:27:55.042Z,216.07
2022-08-31T22:28:59.836Z,189.45
2022-08-31T22:30:05.448Z,125.47
2022-08-31T22:31:10.929Z,133.20
2022-08-31T22:32:15.253Z,199.48
2022-08-31T22:33:19.845Z,134.77
2022-08-31T22:34:22.132Z,174.32
2022-08-31T22:35:26.744Z,203.50
2022-08-31T22:36:32.351Z,85.15
2022-08-31T22:37:39.490Z,77.82
2022-08-31T22:38:42.779Z,79.28
2022-08-31T22:39:48.191Z,128.85
2022-08-31T22:40:50.766Z,140.05
2022-08-31T22:41:56.025Z,167.00
2022-08-31T22:42:58.717Z,194.73
2022-08-31T22:44:03.952Z,109.82
2022-08-31T22:45:09.919Z,138.63
2022-08-31T22:46:15.908Z,131.70
2022-08-31T22:47:20.590Z,145.68
2022-08-31T22:48:22.604Z,60.28
2022-08-31T22:49:28.193Z,73.68
2022-08-31T22:50:31.531Z,85.90
2022-08-31T22:51:37.023Z,93.63
2022-08-31T22:52:39.321Z,159.13
2022-08-31T22:53:46.201Z,220.63
2022-08-31T22:54:48.428Z,200.75
2022-08-31T22:55:53.042Z,232.18
2022-08-31T22:56:55.180Z,280.60
2022-08-31T22:57:59.989Z,304.23
2022-08-31T22:59:05.724Z,358.88
2022-08-31T23:00:14.786Z,281.00
2022-08-31T23:01:19.132Z,396.20
2022-08-31T23:02:28.871Z,412.08
2022-08-31T23:03:30.891Z,231.40
2022-08-31T23:04:41.852Z,393.63
2022-08-31T23:05:46.071Z,558.50
2022-08-31T23:06:52.220Z,610.05
2022-08-31T23:07:54.809Z,679.53
2022-08-31T23:09:00.959Z,768.85
2022-08-31T23:10:03.933Z,499.77
2022-08-31T23:11:08.901Z,17.65
2022-08-31T23:12:14.038Z,16.13
2022-08-31T23:13:16.098Z,16.40
2022-08-31T23:14:21.265Z,16.95
2022-08-31T23:15:26.588Z,16.30
2022-08-31T23:16:34.731Z,24.60
2022-08-31T23:17:38.205Z,131.90
2022-08-31T23:18:43.096Z,90.68
2022-08-31T23:19:54.269Z,132.68
2022-08-31T23:21:02.882Z,153.02
2022-08-31T23:22:09.387Z,177.00
2022-08-31T23:23:15.039Z,186.68
2022-08-31T23:24:21.230Z,197.10
2022-08-31T23:25:27.272Z,104.97
2022-08-31T23:26:30.491Z,155.27
2022-08-31T23:27:36.125Z,92.25
2022-08-31T23:28:39.435Z,135.88
2022-08-31T23:29:48.019Z,191.68
2022-08-31T23:30:52.788Z,148.48
2022-08-31T23:31:57.563Z,267.48
2022-08-31T23:33:02.233Z,331.67
2022-08-31T23:34:09.762Z,401.10
2022-08-31T23:35:13.610Z,214.98
2022-08-31T23:36:18.184Z,20.45
2022-08-31T23:37:24.176Z,21.05
2022-08-31T23:38:33.513Z,21.77
2022-08-31T23:39:39.125Z,22.80
2022-08-31T23:40:46.067Z,22.20
2022-08-31T23:41:48.985Z,21.80
2022-08-31T23:42:55.650Z,413.83
2022-08-31T23:43:58.899Z,23.33
2022-08-31T23:45:04.294Z,24.45
2022-08-31T23:46:09.021Z,24.77
2022-08-31T23:47:17.035Z,24.08
2022-08-31T23:48:19.320Z,25.60
2022-08-31T23:49:24.588Z,25.17
2022-08-31T23:50:26.588Z,24.63
2022-08-31T23:51:33.457Z,25.25
2022-08-31T23:52:37.669Z,25.20
2022-08-31T23:53:42.364Z,26.55
2022-08-31T23:54:44.925Z,25.95
2022-08-31T23:55:51.778Z,25.02
2022-08-31T23:56:57.834Z,25.17
2022-08-31T23:58:02.646Z,26.63
2022-08-31T23:59:09.281Z,27.77
